Time;durP1;ratioP1;P1;durP2;ratioP2;P2;SDS_P1;SDS_P2;PMS_P1;PMS_P2;Temp;Humidity;BMP_temperature;BMP_pressure;BME280_temperature;BME280_humidity;BME280_pressure;Samples;Min_cycle;Max_cycle;Signal;HPM_P1;HPM_P2
2023/12/16 00:01:24;;;;;;;13.27;5.47;;;8.20;99.20;;;;;;6251770;22;20050;-88
2023/12/16 00:03:52;;;;;;;16.98;6.88;;;8.20;99.10;;;;;;6251383;22;20074;-88
2023/12/16 00:06:20;;;;;;;13.23;5.82;;;8.20;99.00;;;;;;6251309;22;20043;-83
2023/12/16 00:08:48;;;;;;;16.65;6.18;;;8.20;98.90;;;;;;6276265;22;20040;-83
2023/12/16 00:11:15;;;;;;;12.25;5.13;;;8.20;98.90;;;;;;6276113;22;20456;-83
2023/12/16 00:13:46;;;;;;;12.40;6.07;;;8.20;98.90;;;;;;6277131;22;20027;-83
2023/12/16 00:16:13;;;;;;;12.00;5.85;;;8.20;98.70;;;;;;6250874;22;20020;-83
2023/12/16 00:18:41;;;;;;;12.55;5.65;;;8.20;98.70;;;;;;6275609;22;20019;-82
2023/12/16 00:21:08;;;;;;;16.60;5.65;;;8.20;98.70;;;;;;6276227;22;20012;-83
2023/12/16 00:23:35;;;;;;;12.23;4.90;;;8.20;98.50;;;;;;6250673;22;20020;-82
2023/12/16 00:26:02;;;;;;;10.82;4.32;;;8.20;98.50;;;;;;6250515;22;20015;-82
2023/12/16 00:28:29;;;;;;;9.13;3.72;;;8.20;98.60;;;;;;6276095;22;20016;-83
2023/12/16 00:30:57;;;;;;;12.88;4.03;;;8.20;98.60;;;;;;6275964;22;20046;-83
2023/12/16 00:33:24;;;;;;;9.25;3.58;;;8.20;98.60;;;;;;6275758;22;20027;-83
2023/12/16 00:35:51;;;;;;;10.02;4.03;;;8.20;98.80;;;;;;6250542;22;20024;-83
2023/12/16 00:38:18;;;;;;;8.45;3.72;;;8.20;98.50;;;;;;6275643;22;20028;-83
2023/12/16 00:40:48;;;;;;;8.80;3.40;;;8.20;98.50;;;;;;6275837;22;20022;-83
2023/12/16 00:43:18;;;;;;;8.50;3.05;;;8.20;98.50;;;;;;6275977;22;20030;-83
2023/12/16 00:45:45;;;;;;;6.90;3.53;;;8.20;98.50;;;;;;6250206;22;20102;-83
2023/12/16 00:48:13;;;;;;;7.22;2.72;;;8.20;98.50;;;;;;6301215;22;20331;-83
2023/12/16 00:50:42;;;;;;;10.82;3.13;;;8.20;98.40;;;;;;6275739;22;20438;-82
2023/12/16 00:53:09;;;;;;;5.80;2.40;;;8.20;98.40;;;;;;6250777;22;20106;-82
2023/12/16 00:55:36;;;;;;;6.65;2.42;;;8.20;98.50;;;;;;6275472;22;20023;-83
2023/12/16 00:58:03;;;;;;;6.93;2.08;;;8.20;98.50;;;;;;6249987;22;20081;-83
2023/12/16 01:00:30;;;;;;;8.20;2.50;;;8.20;98.40;;;;;;6275297;22;20027;-83
2023/12/16 01:03:00;;;;;;;5.68;1.80;;;8.20;98.50;;;;;;6301492;22;20043;-83
2023/12/16 01:05:27;;;;;;;7.35;1.85;;;8.20;98.30;;;;;;6275883;22;20012;-84
2023/12/16 01:07:55;;;;;;;5.20;1.20;;;8.20;98.20;;;;;;6250484;22;20016;-83
2023/12/16 01:10:23;;;;;;;5.70;1.58;;;8.20;98.30;;;;;;6250244;22;20012;-83
2023/12/16 01:12:50;;;;;;;5.03;1.40;;;8.20;98.30;;;;;;6301126;22;20458;-83
2023/12/16 01:15:17;;;;;;;4.55;1.08;;;8.20;98.30;;;;;;6275557;22;20020;-82
2023/12/16 01:17:44;;;;;;;3.83;0.80;;;8.20;98.40;;;;;;6275231;22;20034;-83
2023/12/16 01:20:14;;;;;;;3.55;0.88;;;8.10;98.50;;;;;;6225467;22;20047;-82
2023/12/16 01:22:44;;;;;;;4.72;1.10;;;8.10;98.50;;;;;;6276647;22;20042;-82
2023/12/16 01:25:10;;;;;;;3.05;1.10;;;8.10;98.40;;;;;;6224609;22;20020;-83
2023/12/16 01:27:37;;;;;;;3.47;1.05;;;8.10;98.50;;;;;;6276590;22;20042;-82
2023/12/16 01:30:06;;;;;;;3.80;1.00;;;8.00;98.50;;;;;;6224624;22;20077;-82
2023/12/16 01:32:34;;;;;;;3.22;0.77;;;8.00;98.50;;;;;;6200206;22;20023;-83
2023/12/16 01:35:02;;;;;;;4.45;1.40;;;8.10;98.50;;;;;;6224574;22;20019;-81
2023/12/16 01:37:29;;;;;;;5.68;1.25;;;8.10;98.40;;;;;;6224490;22;20077;-81
2023/12/16 01:39:56;;;;;;;5.53;1.35;;;8.10;98.40;;;;;;6224588;22;20023;-81
2023/12/16 01:42:23;;;;;;;2.05;0.57;;;8.00;98.30;;;;;;6250318;22;20496;-82
2023/12/16 01:44:50;;;;;;;2.42;1.17;;;8.00;98.30;;;;;;6225714;22;20020;-82
2023/12/16 01:47:17;;;;;;;3.50;1.40;;;8.00;98.40;;;;;;6224674;22;20020;-83
2023/12/16 01:49:44;;;;;;;4.35;1.15;;;7.90;98.40;;;;;;6224577;22;20019;-82
2023/12/16 01:52:11;;;;;;;4.35;1.23;;;7.80;98.40;;;;;;6251754;22;20015;-83
2023/12/16 01:54:38;;;;;;;5.45;1.13;;;7.80;98.40;;;;;;6227063;22;20039;-83
2023/12/16 01:57:06;;;;;;;4.22;0.80;;;7.80;98.40;;;;;;6226785;22;20030;-82
2023/12/16 01:59:33;;;;;;;5.00;1.50;;;7.70;98.50;;;;;;6227061;22;20027;-83
2023/12/16 02:02:00;;;;;;;2.80;0.88;;;7.70;98.60;;;;;;6252105;22;20047;-83
2023/12/16 02:04:27;;;;;;;4.28;0.90;;;7.70;98.80;;;;;;6252388;22;20114;-83
2023/12/16 02:06:56;;;;;;;5.60;1.15;;;7.60;98.70;;;;;;6226748;22;20020;-82
2023/12/16 02:09:23;;;;;;;1.60;0.80;;;7.60;98.70;;;;;;6226370;22;20016;-82
2023/12/16 02:11:52;;;;;;;3.47;0.98;;;7.60;98.80;;;;;;6277151;22;20024;-83
2023/12/16 02:14:19;;;;;;;2.17;0.70;;;7.60;98.90;;;;;;6252703;22;20039;-82
2023/12/16 02:16:46;;;;;;;2.47;0.60;;;7.50;98.90;;;;;;6226471;22;20018;-82
2023/12/16 02:19:23;;;;;;;4.60;0.50;;;7.50;99.00;;;;;;6270038;22;20026;-83
2023/12/16 02:21:50;;;;;;;3.28;1.20;;;7.50;99.00;;;;;;6277331;22;20022;-83
2023/12/16 02:24:18;;;;;;;3.55;1.05;;;7.50;99.00;;;;;;6276979;22;20026;-82
2023/12/16 02:26:48;;;;;;;5.53;1.35;;;7.50;99.10;;;;;;6277137;22;20342;-82
2023/12/16 02:29:18;;;;;;;2.95;1.10;;;7.50;99.00;;;;;;6277748;22;20022;-82
2023/12/16 02:31:45;;;;;;;4.20;1.13;;;7.50;98.90;;;;;;6276909;22;20462;-82
2023/12/16 02:34:12;;;;;;;4.25;0.85;;;7.50;98.80;;;;;;6277381;22;20102;-82
2023/12/16 02:36:40;;;;;;;3.47;1.00;;;7.50;98.80;;;;;;6277007;22;20023;-81
2023/12/16 02:39:07;;;;;;;4.57;0.90;;;7.50;98.80;;;;;;6251396;22;20458;-83
2023/12/16 02:41:34;;;;;;;4.30;1.45;;;7.40;98.90;;;;;;6277046;22;20020;-82
2023/12/16 02:44:01;;;;;;;2.70;1.15;;;7.40;98.90;;;;;;6251392;22;20370;-82
2023/12/16 02:46:30;;;;;;;4.32;0.90;;;7.30;99.00;;;;;;6251344;22;20019;-81
2023/12/16 02:48:57;;;;;;;3.28;0.55;;;7.30;99.20;;;;;;6251843;22;20020;-82
2023/12/16 02:51:24;;;;;;;3.30;0.63;;;7.30;99.10;;;;;;6251320;22;20020;-82
2023/12/16 02:53:52;;;;;;;2.08;0.60;;;7.20;99.10;;;;;;6276968;22;20031;-82
2023/12/16 02:56:19;;;;;;;3.20;0.60;;;7.20;99.30;;;;;;6251748;22;20019;-83
2023/12/16 02:58:47;;;;;;;1.35;0.40;;;7.10;99.40;;;;;;6251481;22;20074;-82
2023/12/16 03:01:15;;;;;;;1.75;0.40;;;7.00;99.50;;;;;;6276493;22;20020;-82
2023/12/16 03:03:42;;;;;;;1.70;0.50;;;6.90;99.50;;;;;;6251559;22;20034;-83
2023/12/16 03:06:09;;;;;;;1.45;0.47;;;6.90;99.60;;;;;;6302456;22;20016;-83
2023/12/16 03:08:37;;;;;;;3.03;0.65;;;6.90;99.70;;;;;;6278041;22;20015;-83
2023/12/16 03:11:04;;;;;;;3.10;0.77;;;6.80;99.70;;;;;;6251417;22;20438;-82
2023/12/16 03:13:32;;;;;;;2.90;0.80;;;6.80;99.70;;;;;;6302143;22;20027;-82
2023/12/16 03:15:59;;;;;;;5.95;1.30;;;6.80;99.70;;;;;;6276551;22;20051;-83
2023/12/16 03:18:26;;;;;;;4.78;1.40;;;6.80;99.70;;;;;;6251285;22;20024;-83
2023/12/16 03:20:54;;;;;;;4.45;1.23;;;6.80;99.70;;;;;;6277033;22;20023;-83
2023/12/16 03:23:21;;;;;;;8.63;2.45;;;6.80;99.60;;;;;;6302581;22;20016;-83
2023/12/16 03:25:48;;;;;;;6.70;2.13;;;6.80;99.50;;;;;;6276712;22;20073;-83
2023/12/16 03:28:15;;;;;;;5.63;1.63;;;6.90;99.40;;;;;;6277041;22;20026;-83
2023/12/16 03:30:44;;;;;;;6.82;2.22;;;6.80;99.30;;;;;;6251502;22;20019;-83
2023/12/16 03:33:13;;;;;;;4.93;1.90;;;6.80;99.40;;;;;;6251536;22;20107;-83
2023/12/16 03:35:40;;;;;;;7.60;2.22;;;6.80;99.40;;;;;;6276544;22;20077;-83
2023/12/16 03:38:07;;;;;;;8.27;2.35;;;6.80;99.30;;;;;;6276661;22;20015;-82
2023/12/16 03:40:36;;;;;;;4.95;1.65;;;6.80;99.30;;;;;;6251001;22;20446;-82
2023/12/16 03:43:04;;;;;;;5.85;2.10;;;6.80;99.40;;;;;;6250815;22;20023;-82
2023/12/16 03:45:31;;;;;;;8.65;2.47;;;6.80;99.30;;;;;;6276172;22;20015;-83
2023/12/16 03:47:58;;;;;;;9.32;2.80;;;6.80;99.30;;;;;;6276365;22;20024;-81
2023/12/16 03:50:25;;;;;;;6.43;3.00;;;6.80;99.30;;;;;;6251208;22;20015;-81
2023/12/16 03:52:52;;;;;;;5.40;1.67;;;6.80;99.30;;;;;;6250864;22;20032;-83
2023/12/16 03:55:19;;;;;;;7.35;2.65;;;6.80;99.40;;;;;;6250947;22;20023;-81
2023/12/16 03:57:46;;;;;;;7.88;2.35;;;6.80;99.30;;;;;;6276219;22;20022;-81
2023/12/16 04:00:13;;;;;;;9.38;3.42;;;6.70;99.20;;;;;;6276188;22;20031;-81
2023/12/16 04:02:40;;;;;;;6.07;3.33;;;6.80;99.20;;;;;;6276392;22;20016;-82
2023/12/16 04:05:08;;;;;;;6.13;2.58;;;6.80;99.10;;;;;;6250818;22;20054;-82
2023/12/16 04:07:35;;;;;;;6.75;2.67;;;6.80;99.10;;;;;;6276201;22;20051;-82
2023/12/16 04:10:03;;;;;;;11.27;2.83;;;6.80;99.10;;;;;;6250821;22;20453;-82
2023/12/16 04:12:31;;;;;;;8.93;3.13;;;6.90;99.00;;;;;;6250750;22;20374;-82
2023/12/16 04:14:58;;;;;;;11.18;3.05;;;6.90;98.90;;;;;;6275935;22;20024;-82
2023/12/16 04:17:26;;;;;;;10.60;3.45;;;7.00;98.80;;;;;;6276049;22;20446;-82
2023/12/16 04:19:54;;;;;;;7.50;2.78;;;7.00;98.70;;;;;;6250739;22;20020;-84
2023/12/16 04:22:22;;;;;;;8.00;3.13;;;7.00;98.90;;;;;;6276277;22;20400;-82
2023/12/16 04:24:50;;;;;;;9.93;3.97;;;7.10;98.50;;;;;;6250840;22;20027;-84
2023/12/16 04:27:17;;;;;;;12.38;3.13;;;7.10;98.50;;;;;;6276259;22;20028;-83
2023/12/16 04:29:45;;;;;;;9.38;3.45;;;7.10;98.40;;;;;;6250602;22;20019;-83
2023/12/16 04:32:14;;;;;;;10.75;3.72;;;7.10;98.30;;;;;;6251451;22;20019;-83
2023/12/16 04:34:42;;;;;;;10.60;3.67;;;7.20;98.30;;;;;;6276192;22;20026;-83
2023/12/16 04:37:10;;;;;;;7.00;2.75;;;7.20;98.30;;;;;;6276286;22;20019;-83
2023/12/16 04:39:38;;;;;;;15.32;3.72;;;7.20;98.40;;;;;;6301611;22;20110;-82
2023/12/16 04:42:05;;;;;;;7.22;2.55;;;7.20;98.40;;;;;;6275932;22;20024;-84
2023/12/16 04:44:32;;;;;;;8.93;2.78;;;7.20;98.40;;;;;;6250444;22;20035;-83
2023/12/16 04:46:59;;;;;;;7.00;2.45;;;7.20;98.30;;;;;;6250533;22;20016;-83
2023/12/16 04:49:26;;;;;;;5.93;2.13;;;7.10;98.30;;;;;;6275870;22;20070;-84
2023/12/16 04:51:53;;;;;;;5.53;2.30;;;7.10;98.40;;;;;;6275904;22;20051;-83
2023/12/16 04:54:20;;;;;;;4.47;1.90;;;7.10;98.50;;;;;;6301206;22;20016;-84
2023/12/16 04:56:50;;;;;;;8.27;2.75;;;7.10;98.60;;;;;;6250204;22;20027;-82
2023/12/16 04:59:17;;;;;;;7.22;2.72;;;7.00;98.50;;;;;;6276023;22;20106;-83
2023/12/16 05:01:44;;;;;;;10.77;2.33;;;7.00;98.60;;;;;;6301753;22;20027;-82
2023/12/16 05:04:11;;;;;;;8.55;3.38;;;7.00;98.60;;;;;;6250501;22;20092;-83
2023/12/16 05:06:39;;;;;;;8.60;2.65;;;6.90;98.60;;;;;;6250505;22;20019;-83
2023/12/16 05:09:10;;;;;;;6.90;2.75;;;6.90;98.70;;;;;;6250168;22;20102;-84
2023/12/16 05:11:37;;;;;;;12.05;3.60;;;6.90;98.60;;;;;;6251140;22;20381;-83
2023/12/16 05:14:04;;;;;;;11.52;3.20;;;6.90;98.60;;;;;;6250284;22;20111;-83
2023/12/16 05:16:31;;;;;;;6.85;3.05;;;6.90;98.60;;;;;;6250184;22;20023;-83
2023/12/16 05:19:03;;;;;;;8.65;3.42;;;6.90;98.60;;;;;;6250242;22;20026;-83
2023/12/16 05:21:30;;;;;;;10.40;3.10;;;6.80;98.60;;;;;;6251248;22;20354;-83
2023/12/16 05:23:58;;;;;;;9.98;2.78;;;6.80;98.60;;;;;;6249965;22;20098;-83
2023/12/16 05:26:24;;;;;;;10.15;2.72;;;6.80;98.60;;;;;;6275759;22;20011;-83
2023/12/16 05:28:52;;;;;;;7.95;2.65;;;6.80;98.70;;;;;;6275316;22;20331;-83
2023/12/16 05:31:19;;;;;;;9.55;3.35;;;6.80;98.70;;;;;;6275356;22;20046;-83
2023/12/16 05:33:46;;;;;;;10.02;2.50;;;6.80;98.80;;;;;;6250397;22;20019;-83
2023/12/16 05:36:13;;;;;;;10.15;2.63;;;6.80;98.80;;;;;;6250028;22;20020;-83
2023/12/16 05:38:42;;;;;;;10.70;3.33;;;6.80;98.80;;;;;;6250392;22;20450;-83
2023/12/16 05:41:11;;;;;;;8.45;3.28;;;6.80;98.70;;;;;;6250502;22;20358;-81
2023/12/16 05:43:39;;;;;;;9.82;3.83;;;6.80;98.70;;;;;;6275738;22;20020;-82
2023/12/16 05:46:06;;;;;;;7.95;2.72;;;6.80;98.80;;;;;;6250257;22;20020;-83
2023/12/16 05:48:35;;;;;;;12.70;2.97;;;6.70;98.90;;;;;;6300869;22;20030;-83
2023/12/16 05:51:04;;;;;;;6.85;2.70;;;6.70;99.00;;;;;;6275765;22;20096;-83
2023/12/16 05:53:34;;;;;;;9.15;2.95;;;6.70;99.00;;;;;;6300956;22;20019;-83
2023/12/16 05:56:06;;;;;;;12.05;3.63;;;6.70;99.00;;;;;;6249982;22;20030;-82
2023/12/16 05:58:33;;;;;;;8.00;3.30;;;6.70;99.00;;;;;;6250771;22;20026;-83
2023/12/16 06:01:01;;;;;;;9.32;3.10;;;6.70;99.00;;;;;;6275292;22;20043;-82
2023/12/16 06:03:28;;;;;;;9.45;3.45;;;6.70;99.00;;;;;;6275884;22;20012;-82
2023/12/16 06:05:55;;;;;;;11.10;3.67;;;6.70;98.90;;;;;;6275235;22;20115;-83
2023/12/16 06:08:22;;;;;;;10.38;3.88;;;6.70;99.00;;;;;;6275342;22;20446;-83
2023/12/16 06:10:49;;;;;;;10.75;3.00;;;6.70;99.00;;;;;;6275659;22;20023;-82
2023/12/16 06:13:17;;;;;;;8.48;3.35;;;6.70;99.00;;;;;;6224622;22;20384;-82
2023/12/16 06:15:44;;;;;;;7.13;2.75;;;6.70;99.00;;;;;;6300709;22;20027;-83
2023/12/16 06:18:11;;;;;;;11.50;3.67;;;6.70;99.10;;;;;;6250126;22;20319;-83
2023/12/16 06:20:38;;;;;;;8.13;3.17;;;6.70;99.10;;;;;;6249811;22;20350;-82
2023/12/16 06:23:05;;;;;;;9.40;2.90;;;6.60;99.10;;;;;;6249747;22;20030;-82
2023/12/16 06:25:32;;;;;;;8.20;3.00;;;6.60;99.20;;;;;;6250145;22;20026;-83
2023/12/16 06:27:59;;;;;;;9.98;3.33;;;6.60;99.20;;;;;;6301195;22;20392;-83
2023/12/16 06:30:26;;;;;;;4.68;2.65;;;6.60;99.30;;;;;;6249885;22;20026;-83
2023/12/16 06:32:53;;;;;;;6.10;2.10;;;6.60;99.30;;;;;;6249593;22;20020;-83
2023/12/16 06:35:21;;;;;;;5.75;2.05;;;6.60;99.70;;;;;;6275229;22;20069;-81
2023/12/16 06:37:48;;;;;;;6.30;2.00;;;6.50;99.50;;;;;;6251212;22;20019;-82
2023/12/16 06:40:15;;;;;;;8.07;2.42;;;6.50;99.50;;;;;;6251497;22;20069;-81
2023/12/16 06:42:43;;;;;;;14.18;3.45;;;6.50;99.60;;;;;;6251958;22;20027;-82
2023/12/16 06:45:10;;;;;;;10.70;3.30;;;6.50;99.60;;;;;;6277012;22;20015;-82
2023/12/16 06:47:37;;;;;;;11.68;3.47;;;6.50;99.90;;;;;;6278255;22;20086;-82
2023/12/16 06:50:05;;;;;;;8.70;3.28;;;6.50;99.60;;;;;;6276851;22;20023;-83
2023/12/16 06:52:32;;;;;;;10.50;2.72;;;6.50;99.60;;;;;;6251519;22;20066;-82
2023/12/16 06:54:59;;;;;;;9.75;2.80;;;6.50;99.60;;;;;;6276786;22;20011;-82
2023/12/16 06:57:26;;;;;;;6.00;2.47;;;6.50;99.70;;;;;;6276433;22;20030;-83
2023/12/16 06:59:53;;;;;;;4.75;1.80;;;6.40;99.70;;;;;;6226377;22;20030;-82
2023/12/16 07:02:20;;;;;;;6.95;2.55;;;6.40;99.80;;;;;;6276959;22;20019;-82
2023/12/16 07:04:47;;;;;;;5.72;2.25;;;6.40;99.80;;;;;;6251546;22;20024;-83
2023/12/16 07:07:14;;;;;;;7.45;2.45;;;6.40;99.80;;;;;;6276829;22;20016;-83
2023/12/16 07:09:42;;;;;;;6.53;2.53;;;6.30;99.80;;;;;;6277192;22;20081;-83
2023/12/16 07:12:09;;;;;;;6.57;2.35;;;6.30;99.90;;;;;;6276959;22;20500;-82
2023/12/16 07:14:37;;;;;;;6.18;2.70;;;6.30;99.90;;;;;;6302449;22;20019;-82
2023/12/16 07:17:05;;;;;;;12.45;2.70;;;6.30;99.90;;;;;;6277064;22;20024;-82
2023/12/16 07:19:34;;;;;;;5.60;2.03;;;6.30;99.90;;;;;;6276605;22;20019;-82
2023/12/16 07:22:01;;;;;;;9.45;2.40;;;6.30;99.90;;;;;;6251648;22;20077;-84
2023/12/16 07:24:28;;;;;;;8.45;2.20;;;6.30;99.90;;;;;;6276419;22;20020;-82
2023/12/16 07:26:55;;;;;;;7.30;2.00;;;6.30;99.90;;;;;;6276395;22;20016;-81
2023/12/16 07:29:22;;;;;;;7.05;2.30;;;6.30;99.90;;;;;;6250952;22;20020;-82
2023/12/16 07:31:50;;;;;;;8.90;2.10;;;6.30;99.90;;;;;;6302242;22;20016;-81
2023/12/16 07:34:17;;;;;;;7.63;2.38;;;6.30;99.90;;;;;;6276493;22;20030;-81
2023/12/16 07:36:44;;;;;;;8.48;2.67;;;6.30;99.90;;;;;;6276165;22;20024;-81
2023/12/16 07:39:14;;;;;;;10.07;3.17;;;6.30;99.90;;;;;;6275879;22;20024;-82
2023/12/16 07:41:42;;;;;;;8.68;3.13;;;6.30;99.90;;;;;;6276406;22;20023;-82
2023/12/16 07:44:11;;;;;;;12.85;3.35;;;6.40;99.90;;;;;;6277719;22;20497;-82
2023/12/16 07:46:44;;;;;;;10.52;3.80;;;6.40;99.90;;;;;;6276495;22;20019;-81
2023/12/16 07:49:12;;;;;;;9.10;3.47;;;6.40;99.90;;;;;;6249781;22;20178;-82
2023/12/16 07:51:39;;;;;;;8.13;3.55;;;6.30;99.90;;;;;;6251106;22;20094;-82
2023/12/16 07:54:11;;;;;;;11.40;3.92;;;6.30;99.90;;;;;;6250607;22;20510;-82
2023/12/16 07:56:38;;;;;;;9.32;2.88;;;6.40;99.90;;;;;;6251115;22;20026;-82
2023/12/16 07:59:05;;;;;;;10.43;3.92;;;6.40;99.90;;;;;;6276537;22;20218;-82
2023/12/16 08:01:32;;;;;;;14.57;3.60;;;6.40;99.90;;;;;;6276020;22;20032;-83
2023/12/16 08:03:59;;;;;;;11.90;3.35;;;6.40;99.90;;;;;;6250586;22;20066;-83
2023/12/16 08:06:26;;;;;;;9.98;3.65;;;6.50;99.90;;;;;;6250557;22;20098;-83
2023/12/16 08:08:53;;;;;;;11.90;3.50;;;6.50;99.90;;;;;;6275782;22;20027;-82
2023/12/16 08:11:20;;;;;;;9.65;3.25;;;6.50;99.90;;;;;;6275865;22;20030;-83
2023/12/16 08:13:47;;;;;;;9.52;2.90;;;6.50;99.90;;;;;;6275594;22;20077;-82
2023/12/16 08:16:14;;;;;;;9.82;2.55;;;6.50;99.90;;;;;;6302306;22;20102;-82
2023/12/16 08:18:43;;;;;;;9.27;4.05;;;6.50;99.90;;;;;;6300982;22;20016;-82
2023/12/16 08:21:10;;;;;;;9.70;2.83;;;6.60;99.90;;;;;;6276055;22;20438;-82
2023/12/16 08:23:37;;;;;;;14.40;3.33;;;6.70;99.90;;;;;;6250283;22;20043;-82
2023/12/16 08:26:10;;;;;;;10.82;3.50;;;6.70;99.90;;;;;;6275349;22;20023;-83
2023/12/16 08:28:37;;;;;;;9.63;2.53;;;6.70;99.90;;;;;;6275718;22;20054;-82
2023/12/16 08:31:06;;;;;;;9.65;2.53;;;6.80;99.80;;;;;;6275372;22;20327;-82
2023/12/16 08:33:34;;;;;;;5.60;2.08;;;6.80;99.80;;;;;;6250347;22;20407;-83
2023/12/16 08:36:02;;;;;;;10.95;2.65;;;6.80;99.80;;;;;;6275592;22;20077;-82
2023/12/16 08:38:29;;;;;;;5.40;1.67;;;6.80;99.80;;;;;;6277025;22;20077;-83
2023/12/16 08:41:07;;;;;;;5.97;1.80;;;6.90;99.80;;;;;;6250576;22;20077;-93
2023/12/16 08:43:35;;;;;;;8.73;1.80;;;7.00;99.80;;;;;;6250834;22;20020;-83
2023/12/16 08:46:03;;;;;;;9.57;2.75;;;7.00;99.80;;;;;;6250109;22;20027;-81
2023/12/16 08:48:31;;;;;;;8.45;2.42;;;7.10;99.80;;;;;;6250166;22;20020;-83
2023/12/16 08:50:58;;;;;;;9.90;2.13;;;7.20;99.60;;;;;;6275245;22;20346;-83
2023/12/16 08:53:26;;;;;;;11.05;3.10;;;7.30;99.50;;;;;;6249811;22;20042;-81
2023/12/16 08:55:53;;;;;;;9.60;2.70;;;7.40;99.30;;;;;;6249881;22;20348;-79
2023/12/16 08:58:20;;;;;;;14.25;3.40;;;7.60;99.20;;;;;;6276799;22;20115;-80
2023/12/16 09:00:48;;;;;;;10.57;3.08;;;7.70;99.00;;;;;;6275178;22;20339;-83
2023/12/16 09:03:16;;;;;;;14.15;3.33;;;7.80;98.80;;;;;;6275810;22;20047;-82
2023/12/16 09:05:45;;;;;;;9.35;2.40;;;7.80;98.60;;;;;;6275407;22;20099;-84
2023/12/16 09:08:13;;;;;;;7.32;2.38;;;7.90;98.60;;;;;;6250183;22;20430;-84
2023/12/16 09:10:40;;;;;;;12.40;2.42;;;8.00;98.50;;;;;;6250268;22;20012;-83
2023/12/16 09:13:07;;;;;;;7.03;2.17;;;8.00;98.50;;;;;;6249907;22;20024;-82
2023/12/16 09:15:34;;;;;;;9.65;3.80;;;8.10;98.50;;;;;;6275117;22;20047;-82
2023/12/16 09:18:01;;;;;;;12.98;3.05;;;8.10;98.40;;;;;;6249476;22;20024;-80
2023/12/16 09:20:28;;;;;;;12.68;2.53;;;8.10;98.40;;;;;;6224714;22;20030;-81
2023/12/16 09:22:55;;;;;;;10.70;3.13;;;8.10;98.40;;;;;;6225000;22;20020;-81
2023/12/16 09:25:22;;;;;;;7.57;2.97;;;8.20;98.40;;;;;;6224911;22;20453;-79
2023/12/16 09:27:49;;;;;;;10.82;3.67;;;8.20;98.30;;;;;;6224394;22;20024;-84
2023/12/16 09:30:19;;;;;;;12.75;3.20;;;8.30;98.30;;;;;;6224930;22;20027;-84
2023/12/16 09:32:47;;;;;;;8.70;3.10;;;8.30;98.20;;;;;;6250044;22;20102;-83
2023/12/16 09:35:15;;;;;;;7.70;3.17;;;8.30;98.30;;;;;;6224166;22;20020;-80
2023/12/16 09:37:44;;;;;;;11.48;3.10;;;8.40;98.20;;;;;;6274807;22;20505;-80
2023/12/16 09:40:13;;;;;;;10.45;3.10;;;8.30;98.00;;;;;;6224266;22;20081;-83
2023/12/16 09:42:44;;;;;;;11.18;4.00;;;8.40;98.10;;;;;;6224703;22;20023;-83
2023/12/16 09:45:16;;;;;;;12.63;3.80;;;8.40;98.10;;;;;;6249441;22;20022;-80
2023/12/16 09:47:47;;;;;;;14.40;3.92;;;8.40;98.10;;;;;;6225231;22;20023;-83
2023/12/16 09:50:15;;;;;;;13.00;4.22;;;8.40;98.10;;;;;;6249175;22;20023;-81
2023/12/16 09:52:44;;;;;;;15.48;5.15;;;8.30;98.00;;;;;;6225391;22;20020;-82
2023/12/16 09:55:13;;;;;;;13.88;4.22;;;8.40;98.00;;;;;;6249429;22;20016;-83
2023/12/16 09:57:42;;;;;;;15.15;4.32;;;8.40;98.10;;;;;;6249701;22;20042;-83
2023/12/16 10:00:09;;;;;;;17.27;5.60;;;8.40;98.20;;;;;;6224704;22;20082;-83
2023/12/16 10:02:38;;;;;;;17.42;5.28;;;8.40;98.20;;;;;;6224283;22;20079;-81
2023/12/16 10:05:07;;;;;;;16.83;5.53;;;8.40;98.30;;;;;;6249333;22;20106;-84
2023/12/16 10:07:34;;;;;;;17.88;5.97;;;8.40;98.30;;;;;;6249956;22;20044;-85
2023/12/16 10:10:02;;;;;;;15.25;5.50;;;8.40;98.40;;;;;;6249700;22;20434;-82
2023/12/16 10:12:36;;;;;;;20.55;5.80;;;8.40;98.50;;;;;;6225302;22;20019;-85
2023/12/16 10:15:03;;;;;;;13.57;5.90;;;8.40;98.50;;;;;;6277561;22;20024;-85
2023/12/16 10:17:31;;;;;;;18.13;4.88;;;8.40;98.90;;;;;;6226741;22;20050;-84
2023/12/16 10:19:58;;;;;;;16.70;4.93;;;8.40;98.70;;;;;;6225217;22;20106;-82
2023/12/16 10:22:25;;;;;;;11.20;5.68;;;8.40;98.70;;;;;;6302595;22;20019;-81
2023/12/16 10:24:53;;;;;;;20.42;6.63;;;8.40;98.70;;;;;;6302334;22;20053;-81
2023/12/16 10:27:23;;;;;;;16.98;6.70;;;8.50;98.80;;;;;;6251220;22;20015;-82
2023/12/16 10:29:52;;;;;;;16.17;6.10;;;8.50;98.90;;;;;;6276499;22;20058;-82
2023/12/16 10:32:33;;;;;;;18.30;5.13;;;8.50;98.90;;;;;;6276632;22;20015;-81
2023/12/16 10:35:02;;;;;;;16.67;5.70;;;8.50;99.00;;;;;;6277160;22;20445;-80
2023/12/16 10:37:29;;;;;;;20.90;6.57;;;8.50;99.00;;;;;;6277405;22;20331;-81
2023/12/16 10:39:56;;;;;;;19.75;6.68;;;8.60;99.10;;;;;;6276661;22;20461;-82
2023/12/16 10:42:24;;;;;;;15.73;6.13;;;8.60;99.10;;;;;;6277484;22;20027;-84
2023/12/16 10:44:54;;;;;;;16.02;5.22;;;8.70;99.10;;;;;;6302697;22;20067;-81
2023/12/16 10:47:27;;;;;;;14.65;5.80;;;8.70;99.10;;;;;;6276385;22;20018;-81
2023/12/16 10:49:57;;;;;;;17.60;6.90;;;8.80;99.20;;;;;;6277925;22;20070;-81
2023/12/16 10:52:27;;;;;;;18.70;7.10;;;8.80;99.20;;;;;;6301996;22;20024;-81
2023/12/16 10:55:02;;;;;;;14.93;7.20;;;8.80;99.20;;;;;;6276287;22;20031;-82
2023/12/16 10:57:45;;;;;;;19.80;8.48;;;8.90;99.30;;;;;;6276186;22;20023;-84
2023/12/16 11:00:31;;;;;;;17.67;7.20;;;8.90;99.30;;;;;;6276417;22;20502;-87
2023/12/16 11:03:19;;;;;;;15.57;7.05;;;8.90;99.40;;;;;;6276245;22;20055;-80
2023/12/16 11:05:50;;;;;;;15.60;7.22;;;8.90;99.50;;;;;;6302252;22;20081;-81
2023/12/16 11:08:22;;;;;;;21.60;8.15;;;8.90;99.50;;;;;;6301758;22;20012;-80
2023/12/16 11:10:53;;;;;;;17.23;8.40;;;9.00;99.60;;;;;;6302484;22;20599;-89
2023/12/16 11:13:21;;;;;;;23.75;8.63;;;9.00;99.90;;;;;;6306765;22;20043;-87
2023/12/16 11:16:04;;;;;;;22.02;8.90;;;9.00;99.80;;;;;;6259881;22;20081;-89
2023/12/16 11:18:34;;;;;;;22.95;10.13;;;9.00;99.90;;;;;;6278254;22;20027;-88
2023/12/16 11:21:05;;;;;;;;;;;9.00;99.90;;;;;;6304855;22;20530;-92
2023/12/16 11:23:48;;;;;;;17.67;9.60;;;8.90;99.90;;;;;;6278319;22;19915;-92
2023/12/16 11:26:19;;;;;;;23.05;9.77;;;9.00;99.90;;;;;;6304076;22;20024;-90
2023/12/16 11:29:05;;;;;;;18.23;8.45;;;8.90;99.90;;;;;;6253443;22;20383;-94
2023/12/16 11:31:32;;;;;;;20.35;8.73;;;9.00;99.90;;;;;;6252529;22;20125;-93
2023/12/16 11:34:05;;;;;;;15.55;8.02;;;9.00;99.90;;;;;;6252388;22;20513;-90
2023/12/16 11:36:52;;;;;;;14.80;6.07;;;9.00;99.90;;;;;;6277761;22;20050;-91
2023/12/16 11:39:40;;;;;;;19.63;7.45;;;9.00;99.90;;;;;;6277499;22;20016;-92
2023/12/16 11:42:13;;;;;;;20.92;8.98;;;9.00;99.90;;;;;;6277857;22;20042;-90
2023/12/16 11:44:57;;;;;;;17.35;8.25;;;9.00;99.90;;;;;;6277413;22;20019;-83
2023/12/16 11:47:38;;;;;;;19.10;8.05;;;9.00;99.90;;;;;;6299986;22;20096;-84
2023/12/16 11:50:06;;;;;;;16.35;7.93;;;8.90;99.90;;;;;;6250738;22;20024;-89
2023/12/16 11:52:33;;;;;;;19.42;8.15;;;8.90;99.90;;;;;;6225949;22;20154;-86
2023/12/16 11:55:00;;;;;;;20.40;7.13;;;8.90;99.90;;;;;;6249928;22;20024;-81
2023/12/16 11:57:30;;;;;;;16.00;8.25;;;8.90;99.90;;;;;;6275663;22;20023;-80
2023/12/16 11:59:57;;;;;;;18.50;7.75;;;8.80;99.90;;;;;;6276032;22;20019;-80
2023/12/16 12:02:24;;;;;;;16.83;7.88;;;8.80;99.90;;;;;;6275635;22;20354;-82
2023/12/16 12:04:52;;;;;;;17.92;8.05;;;8.80;99.90;;;;;;6250290;22;20027;-82
2023/12/16 12:07:19;;;;;;;17.27;8.65;;;8.80;99.90;;;;;;6250176;22;20020;-81
2023/12/16 12:09:53;;;;;;;16.95;8.68;;;8.80;99.90;;;;;;6275848;22;20020;-82
2023/12/16 12:12:20;;;;;;;19.88;9.15;;;8.80;99.90;;;;;;6275312;22;20027;-82
2023/12/16 12:14:47;;;;;;;18.13;9.00;;;8.80;99.90;;;;;;6249970;22;20079;-81
2023/12/16 12:17:14;;;;;;;19.92;8.48;;;8.80;99.90;;;;;;6250135;22;20110;-80
2023/12/16 12:19:44;;;;;;;20.38;10.52;;;8.70;99.90;;;;;;6250525;22;20030;-81
2023/12/16 12:22:12;;;;;;;16.80;7.93;;;8.70;99.90;;;;;;6299960;22;20074;-81
2023/12/16 12:24:40;;;;;;;17.80;8.48;;;8.70;99.90;;;;;;6301222;22;20024;-81
2023/12/16 12:27:08;;;;;;;16.38;8.05;;;8.70;99.90;;;;;;6249932;22;20023;-82
2023/12/16 12:29:58;;;;;;;13.18;7.78;;;8.70;99.90;;;;;;6275673;22;20499;-81
2023/12/16 12:32:27;;;;;;;16.33;8.45;;;8.80;99.90;;;;;;6275212;22;20023;-82
2023/12/16 12:35:06;;;;;;;14.65;7.65;;;8.80;99.90;;;;;;6274891;22;20024;-81
2023/12/16 12:37:40;;;;;;;12.65;8.02;;;8.80;99.90;;;;;;6275486;22;20051;-82
2023/12/16 12:40:13;;;;;;;13.20;7.40;;;8.80;99.90;;;;;;6275926;22;20031;-88
2023/12/16 12:42:53;;;;;;;18.23;9.30;;;8.80;99.90;;;;;;6300824;22;20095;-82
2023/12/16 12:45:26;;;;;;;18.48;9.38;;;8.80;99.90;;;;;;6301184;22;20094;-81
2023/12/16 12:47:54;;;;;;;17.88;8.80;;;8.80;99.90;;;;;;6275611;22;20027;-80
2023/12/16 12:50:25;;;;;;;15.20;8.65;;;8.80;99.90;;;;;;6301015;22;20513;-87
2023/12/16 12:52:53;;;;;;;16.73;8.70;;;8.80;99.90;;;;;;6274538;22;20019;-86
2023/12/16 12:55:43;;;;;;;16.40;8.50;;;8.80;99.90;;;;;;6238661;22;20011;-85
2023/12/16 12:58:11;;;;;;;21.10;9.80;;;8.80;99.90;;;;;;6237019;22;20073;-90
2023/12/16 13:00:52;;;;;;;;;;;8.90;99.90;;;;;;6254551;22;20083;-84